createdAt,value
2022-11-10T00:04:35.171Z,336.17401
2022-11-10T00:19:37.745Z,126.18297
2022-11-10T00:34:40.215Z,19.77494
2022-11-10T00:49:42.497Z,1.88333
2022-11-10T01:04:44.826Z,0.94166
2022-11-10T01:19:47.279Z,0
2022-11-10T01:34:49.730Z,0.94166
2022-11-10T01:49:52.045Z,0
2022-11-10T02:04:54.343Z,0
2022-11-10T02:19:56.694Z,0
2022-11-10T02:34:58.939Z,0
2022-11-10T02:50:01.522Z,0
2022-11-10T03:05:03.709Z,0
2022-11-10T03:20:06.163Z,0
2022-11-10T03:35:08.627Z,0
2022-11-10T03:50:11.052Z,0
2022-11-10T04:05:13.600Z,0.94166
2022-11-10T04:20:15.812Z,0
2022-11-10T04:35:18.040Z,0
2022-11-10T04:50:20.291Z,0
2022-11-10T05:05:22.750Z,0
2022-11-10T05:20:25.134Z,0
2022-11-10T05:35:27.372Z,0.94166
2022-11-10T05:50:29.679Z,0.94166
2022-11-10T06:05:32.029Z,0
2022-11-10T06:20:34.527Z,0
2022-11-10T06:35:36.840Z,0
2022-11-10T06:50:39.098Z,0
2022-11-10T07:05:41.340Z,0
2022-11-10T07:20:43.578Z,0
2022-11-10T07:35:45.816Z,0.94166
2022-11-10T07:50:48.257Z,0
2022-11-10T08:05:50.776Z,0.94166
2022-11-10T08:20:53.744Z,0.94166
2022-11-10T08:35:56.002Z,0.94166
2022-11-10T08:50:58.253Z,0
2022-11-10T09:06:01.164Z,0
2022-11-10T09:21:03.703Z,0
2022-11-10T09:36:05.883Z,0
2022-11-10T09:51:08.292Z,0
2022-11-10T10:06:10.559Z,0.94166
2022-11-10T10:21:12.909Z,0.94166
2022-11-10T10:36:15.229Z,0.94166
2022-11-10T10:51:17.739Z,0.94166
2022-11-10T11:06:19.973Z,0
2022-11-10T11:21:22.226Z,0
2022-11-10T11:36:24.544Z,0
2022-11-10T11:51:26.775Z,0.94166
2022-11-10T12:06:29.025Z,0
2022-11-10T12:21:31.319Z,0
2022-11-10T12:36:33.521Z,0
2022-11-10T12:51:35.733Z,0.94166
2022-11-10T13:06:38.084Z,0
2022-11-10T13:21:40.391Z,0
2022-11-10T13:36:42.618Z,0.94166
2022-11-10T13:51:45.007Z,0
2022-11-10T14:06:47.314Z,0.94166
2022-11-10T14:21:53.957Z,0.94166
2022-11-10T14:36:57.737Z,5.64998
2022-11-10T14:51:59.935Z,38.60822
2022-11-10T15:07:02.484Z,97.93304
2022-11-10T15:22:04.728Z,212.81604
2022-11-10T15:37:07.189Z,389.84888
2022-11-10T15:52:09.417Z,616.78986
2022-11-10T16:07:12.119Z,897.4057
2022-11-10T16:22:14.462Z,1205.32983
2022-11-10T16:37:16.726Z,1336.22107
2022-11-10T16:52:18.954Z,1601.77039
2022-11-10T17:07:21.293Z,2106.5022
2022-11-10T17:22:23.609Z,2655.49219
2022-11-10T17:37:25.815Z,3232.73218
2022-11-10T17:52:28.066Z,3823.15552
2022-11-10T18:07:30.290Z,4646.16992
2022-11-10T18:22:32.531Z,6177.31543
2022-11-10T18:37:38.752Z,6847.78027
2022-11-10T18:52:41.541Z,7037.05469
2022-11-10T19:07:43.823Z,7663.26123
2022-11-10T19:22:46.114Z,6756.43848
2022-11-10T19:37:48.584Z,7247.04541
2022-11-10T19:52:50.816Z,11788.69043
2022-11-10T20:07:53.160Z,10630.44434
2022-11-10T20:22:55.589Z,11376.24219
2022-11-10T20:37:57.908Z,12577.80469
2022-11-10T20:53:00.218Z,11883.79883
2022-11-10T21:08:03.109Z,11509.95801
2022-11-10T21:23:05.535Z,10884.69336
2022-11-10T21:38:07.789Z,8564.43359
2022-11-10T21:53:10.232Z,6932.52979
2022-11-10T22:08:12.501Z,5766.75
2022-11-10T22:23:14.761Z,4115.07129
2022-11-10T22:38:17.047Z,1867.31958
2022-11-10T22:53:19.456Z,1549.97876
2022-11-10T23:08:21.759Z,1306.08789
2022-11-10T23:23:24.986Z,1044.3053
2022-11-10T23:38:27.874Z,777.81439
2022-11-10T23:53:30.402Z,535.80676
